createdAt,value
2018-12-16T00:00:14.980Z,-0.90
2018-12-16T00:03:04.496Z,-0.90
2018-12-16T00:05:41.694Z,-0.90
2018-12-16T00:08:32.564Z,-0.90
2018-12-16T00:11:20.392Z,-0.90
2018-12-16T00:13:55.914Z,-0.90
2018-12-16T00:19:33.336Z,-0.90
2018-12-16T00:22:08.141Z,-0.90
2018-12-16T00:27:58.134Z,-0.90
2018-12-16T00:30:44.900Z,-0.90
2018-12-16T00:33:20.929Z,-0.90
2018-12-16T00:35:58.758Z,-0.90
2018-12-16T00:41:35.451Z,-1.00
2018-12-16T00:44:13.079Z,-1.00
2018-12-16T00:46:45.690Z,-1.00
2018-12-16T00:49:23.923Z,-0.90
2018-12-16T00:52:00.237Z,-0.90
2018-12-16T00:54:36.055Z,-0.90
2018-12-16T00:57:09.173Z,-1.00
2018-12-16T00:59:45.431Z,-1.00
2018-12-16T01:02:26.642Z,-1.00
2018-12-16T01:05:02.234Z,-1.00
2018-12-16T01:07:41.018Z,-1.00
2018-12-16T01:10:19.217Z,-0.90
2018-12-16T01:12:53.409Z,-1.00
2018-12-16T01:15:32.465Z,-1.00
2018-12-16T01:18:07.877Z,-1.00
2018-12-16T01:20:43.553Z,-0.90
2018-12-16T01:23:17.610Z,-1.00
2018-12-16T01:25:58.370Z,-1.00
2018-12-16T01:28:46.102Z,-1.00
2018-12-16T01:31:36.572Z,-1.00
2018-12-16T01:34:15.725Z,-1.00
2018-12-16T01:36:52.538Z,-1.00
2018-12-16T01:39:26.120Z,-1.10
2018-12-16T01:42:03.998Z,-1.00
2018-12-16T01:44:41.724Z,-1.00
2018-12-16T01:47:23.321Z,-1.00
2018-12-16T01:50:05.862Z,-1.00
2018-12-16T01:52:41.178Z,-1.10
2018-12-16T01:55:17.053Z,-1.00
2018-12-16T01:58:05.383Z,-1.00
2018-12-16T02:00:53.426Z,-1.00
2018-12-16T02:03:35.506Z,-1.10
2018-12-16T02:06:16.476Z,-1.00
2018-12-16T02:08:59.322Z,-1.00
2018-12-16T02:11:35.842Z,-1.00
2018-12-16T02:14:23.192Z,-1.10
2018-12-16T02:17:06.183Z,-1.00
2018-12-16T02:19:42.580Z,-1.00
2018-12-16T02:22:26.954Z,-1.00
2018-12-16T02:25:04.770Z,-1.00
2018-12-16T02:27:50.178Z,-1.00
2018-12-16T02:30:30.744Z,-1.00
2018-12-16T02:33:13.010Z,-1.00
2018-12-16T02:35:47.849Z,-1.00
2018-12-16T02:38:30.315Z,-1.00
2018-12-16T02:41:13.050Z,-1.00
2018-12-16T02:43:50.760Z,-1.00
2018-12-16T02:46:23.928Z,-1.00
2018-12-16T02:49:14.199Z,-1.00
2018-12-16T02:51:49.152Z,-1.00
2018-12-16T02:54:29.978Z,-1.00
2018-12-16T02:57:11.384Z,-1.00
2018-12-16T02:59:47.500Z,-1.00
2018-12-16T03:02:32.799Z,-1.10
2018-12-16T03:08:13.325Z,-1.00
2018-12-16T03:10:45.868Z,-1.10
2018-12-16T03:13:21.208Z,-1.00
2018-12-16T03:16:10.557Z,-1.00
2018-12-16T03:19:01.451Z,-1.00
2018-12-16T03:21:49.527Z,-1.00
2018-12-16T03:27:33.612Z,-1.00
2018-12-16T03:30:12.489Z,-1.00
2018-12-16T03:32:50.124Z,-1.00
2018-12-16T03:35:27.340Z,-1.00
2018-12-16T03:38:03.464Z,-1.00
2018-12-16T03:40:45.022Z,-1.00
2018-12-16T03:43:30.186Z,-1.00
2018-12-16T03:46:05.195Z,-1.00
2018-12-16T03:48:44.231Z,-1.00
2018-12-16T03:51:33.024Z,-1.00
2018-12-16T03:54:10.234Z,-1.10
2018-12-16T03:56:46.105Z,-1.10
2018-12-16T03:59:21.527Z,-1.10
2018-12-16T04:01:59.113Z,-1.10
2018-12-16T04:04:49.291Z,-1.10
2018-12-16T04:07:25.391Z,-1.10
2018-12-16T04:10:00.946Z,-1.10
2018-12-16T04:12:49.024Z,-1.10
2018-12-16T04:15:24.818Z,-1.10
2018-12-16T04:18:02.950Z,-1.20
2018-12-16T04:20:45.037Z,-1.20
2018-12-16T04:23:17.111Z,-1.20
2018-12-16T04:25:58.830Z,-1.20
2018-12-16T04:28:46.698Z,-1.10
2018-12-16T04:31:19.353Z,-1.10
2018-12-16T04:33:54.810Z,-1.10
2018-12-16T04:36:27.823Z,-1.10
2018-12-16T04:39:07.537Z,-1.10
2018-12-16T04:41:53.510Z,-1.10
2018-12-16T04:44:29.900Z,-1.10
2018-12-16T04:47:18.322Z,-1.10
2018-12-16T04:49:51.625Z,-1.10
2018-12-16T04:52:29.846Z,-1.10
2018-12-16T04:55:03.831Z,-1.10
2018-12-16T04:57:39.631Z,-1.10
2018-12-16T05:00:22.139Z,-1.10
2018-12-16T05:02:58.749Z,-1.10
2018-12-16T05:08:43.592Z,-1.10
2018-12-16T05:11:29.055Z,-1.10
2018-12-16T05:14:09.934Z,-1.10
2018-12-16T05:16:45.425Z,-1.00
2018-12-16T05:19:17.863Z,-1.10
2018-12-16T05:21:50.469Z,-1.10
2018-12-16T05:24:27.802Z,-1.10
2018-12-16T05:27:00.666Z,-1.10
2018-12-16T05:29:32.893Z,-1.10
2018-12-16T05:32:05.249Z,-1.10
2018-12-16T05:34:37.590Z,-1.10
2018-12-16T05:37:09.672Z,-1.10
2018-12-16T05:39:42.131Z,-1.20
2018-12-16T05:42:14.379Z,-1.10
2018-12-16T05:44:46.654Z,-1.20
2018-12-16T05:47:19.296Z,-1.20
2018-12-16T05:49:52.081Z,-1.20
2018-12-16T05:52:25.016Z,-1.20
2018-12-16T05:54:57.481Z,-1.10
2018-12-16T05:57:29.646Z,-1.10
2018-12-16T06:00:02.235Z,-1.10
2018-12-16T06:02:36.558Z,-1.10
2018-12-16T06:05:10.736Z,-1.10
2018-12-16T06:07:43.448Z,-1.10
2018-12-16T06:10:13.845Z,-1.10
2018-12-16T06:12:46.341Z,-1.10
2018-12-16T06:15:19.780Z,-1.10
2018-12-16T06:17:54.375Z,-1.10
2018-12-16T06:20:26.981Z,-1.10
2018-12-16T06:22:59.362Z,-1.10
2018-12-16T06:25:31.203Z,-1.20
2018-12-16T06:28:04.251Z,-1.20
2018-12-16T06:30:38.171Z,-1.20
2018-12-16T06:33:10.581Z,-1.20
2018-12-16T06:35:42.777Z,-1.20
2018-12-16T06:38:17.207Z,-1.20
2018-12-16T06:40:49.997Z,-1.20
2018-12-16T06:43:22.145Z,-1.20
2018-12-16T06:45:54.250Z,-1.20
2018-12-16T06:48:26.669Z,-1.20
2018-12-16T06:51:00.940Z,-1.20
2018-12-16T06:53:33.675Z,-1.20
2018-12-16T06:56:06.769Z,-1.20
2018-12-16T06:58:39.018Z,-1.10
2018-12-16T07:01:11.287Z,-1.10
2018-12-16T07:03:43.529Z,-1.10
2018-12-16T07:06:15.993Z,-1.10
2018-12-16T07:08:48.419Z,-1.10
2018-12-16T07:11:18.378Z,-1.10
2018-12-16T07:13:51.010Z,-1.10
2018-12-16T07:16:23.247Z,-1.10
2018-12-16T07:18:55.352Z,-1.10
2018-12-16T07:21:27.851Z,-1.10
2018-12-16T07:24:00.257Z,-1.10
2018-12-16T07:26:32.541Z,-1.10
2018-12-16T07:29:10.705Z,-1.10
2018-12-16T07:31:55.714Z,-1.10
2018-12-16T07:34:40.734Z,-1.10
2018-12-16T07:37:22.560Z,-1.10
2018-12-16T07:43:04.685Z,-1.20
2018-12-16T07:45:39.038Z,-1.10
2018-12-16T07:48:20.840Z,-1.10
2018-12-16T07:50:56.712Z,-1.10
2018-12-16T07:53:37.955Z,-1.00
2018-12-16T07:56:12.674Z,-0.90
2018-12-16T07:58:49.546Z,-0.90
2018-12-16T08:01:26.950Z,-0.80
2018-12-16T08:04:08.705Z,-0.80
2018-12-16T08:06:45.246Z,-0.80
2018-12-16T08:09:27.207Z,-0.80
2018-12-16T08:12:12.071Z,-0.80
2018-12-16T08:17:38.859Z,-0.80
2018-12-16T08:20:12.634Z,-0.70
2018-12-16T08:22:52.646Z,-0.70
2018-12-16T08:25:28.034Z,-0.70
2018-12-16T08:28:11.205Z,-0.70
2018-12-16T08:30:48.530Z,-0.80
2018-12-16T08:33:37.651Z,-0.80
2018-12-16T08:36:10.324Z,-0.80
2018-12-16T08:38:46.776Z,-0.80
2018-12-16T08:41:29.182Z,-0.80
2018-12-16T08:44:09.490Z,-0.90
2018-12-16T08:46:45.836Z,-0.80
2018-12-16T08:49:36.690Z,-0.90
2018-12-16T08:52:28.041Z,-0.90
2018-12-16T09:04:19.642Z,-0.70
2018-12-16T09:09:53.588Z,-0.60
2018-12-16T09:12:42.069Z,-0.60
2018-12-16T09:21:17.376Z,-0.40
2018-12-16T09:30:12.268Z,-0.20
2018-12-16T09:32:47.971Z,-0.10
2018-12-16T09:35:25.888Z,0.00
2018-12-16T09:38:06.973Z,0.10
2018-12-16T09:40:48.552Z,0.20
2018-12-16T09:43:22.712Z,0.20
2018-12-16T09:46:02.648Z,0.30
2018-12-16T09:48:38.376Z,0.40
2018-12-16T09:51:16.470Z,0.40
2018-12-16T09:53:54.149Z,0.50
2018-12-16T09:56:31.568Z,0.50
2018-12-16T09:59:05.707Z,0.60
2018-12-16T10:01:46.245Z,0.50
2018-12-16T10:04:29.246Z,0.60
2018-12-16T10:07:05.862Z,0.60
2018-12-16T10:09:42.511Z,0.70
2018-12-16T10:15:21.280Z,0.80
2018-12-16T10:18:19.257Z,0.60
2018-12-16T10:21:06.018Z,0.60
2018-12-16T10:23:56.423Z,0.60
2018-12-16T10:59:19.287Z,0.80
2018-12-16T11:26:24.238Z,1.00
2018-12-16T11:50:21.508Z,1.20
2018-12-16T11:52:58.976Z,1.20
2018-12-16T12:17:10.989Z,1.00
2018-12-16T12:46:34.454Z,0.70
2018-12-16T12:49:15.948Z,0.70
2018-12-16T12:54:47.357Z,0.70
2018-12-16T13:03:29.758Z,0.70
2018-12-16T13:06:10.129Z,0.70
2018-12-16T13:08:50.560Z,0.70
2018-12-16T13:17:32.830Z,0.60
2018-12-16T13:20:24.332Z,0.50
2018-12-16T13:25:59.256Z,0.50
2018-12-16T13:28:34.007Z,0.40
2018-12-16T13:31:18.678Z,0.40
2018-12-16T13:33:57.802Z,0.40
2018-12-16T13:36:42.407Z,0.40
2018-12-16T13:42:17.058Z,0.40
2018-12-16T13:45:05.489Z,0.30
2018-12-16T13:47:50.919Z,0.30
2018-12-16T13:50:33.032Z,0.30
2018-12-16T13:53:08.016Z,0.30
2018-12-16T13:55:52.308Z,0.30
2018-12-16T13:58:38.904Z,0.30
2018-12-16T14:04:14.036Z,0.30
2018-12-16T14:06:58.095Z,0.30
2018-12-16T14:09:47.127Z,0.30
2018-12-16T14:15:26.413Z,0.20
2018-12-16T14:30:11.486Z,0.20
2018-12-16T14:32:59.251Z,0.20
2018-12-16T14:53:00.511Z,0.10
2018-12-16T14:55:35.553Z,0.10
2018-12-16T15:01:23.617Z,0.10
2018-12-16T15:07:07.472Z,0.10
2018-12-16T15:09:42.465Z,0.00
2018-12-16T15:12:18.781Z,0.00
2018-12-16T15:17:52.965Z,0.00
2018-12-16T15:20:36.028Z,0.00
2018-12-16T15:23:19.418Z,0.00
2018-12-16T15:25:54.609Z,0.00
2018-12-16T15:28:32.184Z,0.00
2018-12-16T15:31:11.591Z,0.00
2018-12-16T15:33:49.377Z,-0.10
2018-12-16T15:36:31.392Z,-0.10
2018-12-16T15:39:07.037Z,-0.10
2018-12-16T15:41:44.746Z,-0.10
2018-12-16T15:44:32.180Z,-0.10
2018-12-16T15:47:08.263Z,-0.10
2018-12-16T15:49:54.837Z,-0.10
2018-12-16T15:58:42.069Z,-0.10
2018-12-16T16:01:17.570Z,-0.10
2018-12-16T16:03:58.526Z,-0.10
2018-12-16T16:06:38.839Z,-0.10
2018-12-16T16:09:21.407Z,-0.10
2018-12-16T16:11:57.947Z,-0.10
2018-12-16T16:14:38.677Z,-0.10
2018-12-16T16:20:28.401Z,-0.10
2018-12-16T16:23:11.128Z,-0.10
2018-12-16T16:25:49.933Z,-0.10
2018-12-16T16:28:26.162Z,-0.10
2018-12-16T16:31:02.414Z,-0.10
2018-12-16T16:33:38.825Z,-0.10
2018-12-16T16:36:19.593Z,-0.10
2018-12-16T16:41:49.114Z,-0.10
2018-12-16T16:44:26.042Z,-0.10
2018-12-16T16:47:17.137Z,-0.10
2018-12-16T16:50:03.908Z,-0.10
2018-12-16T16:52:45.574Z,-0.20
2018-12-16T16:55:21.468Z,-0.20
2018-12-16T16:57:57.017Z,-0.20
2018-12-16T17:00:39.745Z,-0.20
2018-12-16T17:03:31.008Z,-0.20
2018-12-16T17:09:12.056Z,-0.20
2018-12-16T17:12:03.011Z,-0.20
2018-12-16T17:14:44.494Z,-0.20
2018-12-16T17:17:26.897Z,-0.20
2018-12-16T17:20:06.142Z,-0.20
2018-12-16T17:22:43.165Z,-0.20
2018-12-16T17:25:24.529Z,-0.20
2018-12-16T17:27:57.876Z,-0.20
2018-12-16T17:33:26.943Z,-0.10
2018-12-16T17:36:02.581Z,-0.10
2018-12-16T17:38:44.577Z,-0.20
2018-12-16T17:41:23.687Z,-0.20
2018-12-16T17:44:09.409Z,-0.20
2018-12-16T17:46:49.115Z,-0.10
2018-12-16T18:01:51.673Z,-0.20
2018-12-16T18:04:47.071Z,-0.20
2018-12-16T18:13:37.099Z,-0.20
2018-12-16T18:16:30.098Z,-0.20
2018-12-16T18:31:23.997Z,-0.20
2018-12-16T18:37:31.028Z,-0.20
2018-12-16T18:43:23.289Z,-0.20
2018-12-16T18:46:07.196Z,-0.30
2018-12-16T18:48:44.004Z,-0.20
2018-12-16T18:51:19.198Z,-0.30
2018-12-16T18:53:55.783Z,-0.30
2018-12-16T18:56:43.185Z,-0.30
2018-12-16T18:59:28.155Z,-0.30
2018-12-16T19:02:03.469Z,-0.30
2018-12-16T19:04:42.736Z,-0.30
2018-12-16T19:07:24.739Z,-0.30
2018-12-16T19:10:03.743Z,-0.30
2018-12-16T19:12:38.975Z,-0.30
2018-12-16T19:15:14.469Z,-0.30
2018-12-16T19:18:04.246Z,-0.30
2018-12-16T19:20:38.941Z,-0.30
2018-12-16T19:23:12.371Z,-0.30
2018-12-16T19:25:53.719Z,-0.30
2018-12-16T19:28:28.715Z,-0.30
2018-12-16T19:33:47.336Z,-0.30
2018-12-16T19:36:27.329Z,-0.30
2018-12-16T19:39:03.030Z,-0.30
2018-12-16T19:41:50.520Z,-0.30
2018-12-16T19:44:33.319Z,-0.30
2018-12-16T19:47:12.353Z,-0.30
2018-12-16T19:49:50.967Z,-0.30
2018-12-16T19:52:26.283Z,-0.30
2018-12-16T19:54:59.513Z,-0.30
2018-12-16T19:57:37.288Z,-0.30
2018-12-16T20:00:21.784Z,-0.30
2018-12-16T20:02:58.196Z,-0.30
2018-12-16T20:05:35.031Z,-0.30
2018-12-16T20:08:10.397Z,-0.30
2018-12-16T20:10:51.063Z,-0.30
2018-12-16T20:13:30.705Z,-0.20
2018-12-16T20:16:03.992Z,-0.20
2018-12-16T20:18:46.732Z,-0.30
2018-12-16T20:21:25.879Z,-0.30
2018-12-16T20:23:59.918Z,-0.30
2018-12-16T20:26:32.915Z,-0.30
2018-12-16T20:29:08.894Z,-0.30
2018-12-16T20:31:44.871Z,-0.30
2018-12-16T20:34:18.256Z,-0.30
2018-12-16T20:36:52.444Z,-0.30
2018-12-16T20:39:31.173Z,-0.30
2018-12-16T20:42:11.572Z,-0.30
2018-12-16T20:44:45.804Z,-0.30
2018-12-16T20:47:20.596Z,-0.30
2018-12-16T20:50:06.420Z,-0.30
2018-12-16T20:52:40.323Z,-0.30
2018-12-16T20:55:13.258Z,-0.40
2018-12-16T20:57:48.596Z,-0.40
2018-12-16T21:00:23.564Z,-0.40
2018-12-16T21:02:58.631Z,-0.40
2018-12-16T21:05:39.124Z,-0.40
2018-12-16T21:08:20.158Z,-0.40
2018-12-16T21:10:55.285Z,-0.40
2018-12-16T21:13:33.120Z,-0.40
2018-12-16T21:16:15.260Z,-0.40
2018-12-16T21:18:47.840Z,-0.40
2018-12-16T21:21:20.832Z,-0.50
2018-12-16T21:23:55.951Z,-0.40
2018-12-16T21:26:29.676Z,-0.50
2018-12-16T21:29:10.158Z,-0.50
2018-12-16T21:31:43.363Z,-0.50
2018-12-16T21:34:16.496Z,-0.50
2018-12-16T21:36:51.885Z,-0.50
2018-12-16T21:39:26.459Z,-0.60
2018-12-16T21:42:00.282Z,-0.60
2018-12-16T21:44:38.897Z,-0.50
2018-12-16T21:47:11.804Z,-0.50
2018-12-16T21:49:46.957Z,-0.50
2018-12-16T21:52:23.083Z,-0.50
2018-12-16T21:54:55.939Z,-0.50
2018-12-16T21:57:33.233Z,-0.50
2018-12-16T22:00:07.701Z,-0.50
2018-12-16T22:02:40.348Z,-0.50
2018-12-16T22:05:17.367Z,-0.50
2018-12-16T22:07:50.022Z,-0.60
2018-12-16T22:10:22.917Z,-0.50
2018-12-16T22:12:56.980Z,-0.50
2018-12-16T22:15:29.021Z,-0.50
2018-12-16T22:18:03.419Z,-0.50
2018-12-16T22:20:38.647Z,-0.50
2018-12-16T22:23:11.473Z,-0.60
2018-12-16T22:25:43.495Z,-0.50
2018-12-16T22:28:16.678Z,-0.60
2018-12-16T22:30:51.580Z,-0.50
2018-12-16T22:33:23.655Z,-0.50
2018-12-16T22:35:59.643Z,-0.60
2018-12-16T22:38:37.870Z,-0.60
2018-12-16T22:41:12.067Z,-0.60
2018-12-16T22:43:45.586Z,-0.60
2018-12-16T22:46:17.839Z,-0.60
2018-12-16T22:48:52.332Z,-0.60
2018-12-16T22:51:25.267Z,-0.60
2018-12-16T22:53:58.110Z,-0.60
2018-12-16T22:56:33.959Z,-0.60
2018-12-16T22:59:10.162Z,-0.70
2018-12-16T23:01:43.107Z,-0.70
2018-12-16T23:04:15.556Z,-0.70
2018-12-16T23:06:49.204Z,-0.70
2018-12-16T23:09:23.881Z,-0.70
2018-12-16T23:11:56.358Z,-0.70
2018-12-16T23:14:28.947Z,-0.70
2018-12-16T23:17:01.118Z,-0.70
2018-12-16T23:19:33.397Z,-0.70
2018-12-16T23:22:05.437Z,-0.70
2018-12-16T23:24:46.572Z,-0.70
2018-12-16T23:27:21.485Z,-0.70
2018-12-16T23:29:53.735Z,-0.70
2018-12-16T23:32:26.661Z,-0.70
2018-12-16T23:34:59.116Z,-0.70
2018-12-16T23:37:38.061Z,-0.70
2018-12-16T23:40:11.479Z,-0.70
2018-12-16T23:42:46.509Z,-0.70
2018-12-16T23:45:18.716Z,-0.70
2018-12-16T23:47:50.938Z,-0.70
2018-12-16T23:50:27.058Z,-0.70
2018-12-16T23:53:00.446Z,-0.80
2018-12-16T23:55:35.214Z,-0.70
2018-12-16T23:58:08.735Z,-0.80
